Time;durP1;ratioP1;P1;durP2;ratioP2;P2;SDS_P1;SDS_P2;PMS_P1;PMS_P2;Temp;Humidity;BMP_temperature;BMP_pressure;BME280_temperature;BME280_humidity;BME280_pressure;Samples;Min_cycle;Max_cycle;Signal;HPM_P1;HPM_P2
2024/03/22 00:00:40;;;;;;;8.05;6.63;;;;;;;8.17;73.93;101090.16;2518817;28;20032;-80
2024/03/22 00:01:54;;;;;;;9.50;7.40;;;;;;;8.14;73.95;101091.00;2524312;28;20029;-79
2024/03/22 00:03:07;;;;;;;8.43;7.55;;;;;;;8.08;73.97;101088.38;2523228;28;20658;-79
2024/03/22 00:04:21;;;;;;;7.75;6.55;;;;;;;8.04;73.93;101084.84;2517997;28;20026;-80
2024/03/22 00:05:34;;;;;;;12.43;8.27;;;;;;;8.01;74.01;101086.56;2527871;28;20025;-80
2024/03/22 00:06:49;;;;;;;7.57;6.78;;;;;;;7.98;74.17;101079.63;2514897;28;20054;-79
2024/03/22 00:08:03;;;;;;;7.45;6.78;;;;;;;7.96;74.27;101085.66;2512226;28;20609;-79
2024/03/22 00:09:16;;;;;;;7.57;6.78;;;;;;;7.95;74.23;101086.50;2518632;28;20123;-79
2024/03/22 00:10:30;;;;;;;16.52;7.78;;;;;;;7.93;74.23;101085.63;2518460;28;20495;-79
2024/03/22 00:11:44;;;;;;;8.73;7.50;;;;;;;7.89;74.36;101087.31;2522634;28;20093;-79
2024/03/22 00:12:57;;;;;;;8.77;7.47;;;;;;;7.89;74.53;101082.13;2505003;28;20102;-79
2024/03/22 00:14:11;;;;;;;7.45;6.85;;;;;;;7.88;74.43;101090.78;2505980;28;20101;-79
2024/03/22 00:15:24;;;;;;;7.95;6.90;;;;;;;7.86;74.50;101082.97;2519184;28;20057;-79
2024/03/22 00:16:38;;;;;;;9.30;7.13;;;;;;;7.88;74.36;101084.72;2518017;28;20022;-79
2024/03/22 00:17:51;;;;;;;9.07;8.10;;;;;;;7.86;74.65;101077.75;2518078;28;20021;-79
2024/03/22 00:19:04;;;;;;;9.63;8.30;;;;;;;7.85;74.61;101075.16;2526091;28;20080;-79
2024/03/22 00:20:17;;;;;;;7.95;6.90;;;;;;;7.84;74.58;101074.28;2528468;28;20030;-79
2024/03/22 00:21:31;;;;;;;9.20;7.57;;;;;;;7.82;74.63;101070.81;2515045;28;20050;-79
2024/03/22 00:22:44;;;;;;;11.80;8.25;;;;;;;7.83;74.75;101071.69;2503002;28;20049;-79
2024/03/22 00:23:57;;;;;;;12.40;7.78;;;;;;;7.85;74.61;101065.63;2512399;28;20039;-79
2024/03/22 00:25:10;;;;;;;8.63;7.70;;;;;;;7.86;74.73;101064.75;2511138;28;20472;-79
2024/03/22 00:26:24;;;;;;;10.48;7.20;;;;;;;7.88;74.90;101067.41;2502584;28;20532;-80
2024/03/22 00:27:37;;;;;;;9.80;7.65;;;;;;;7.87;74.70;101060.44;2504266;28;20050;-79
2024/03/22 00:28:50;;;;;;;8.93;7.22;;;;;;;7.87;74.82;101057.84;2509055;28;20049;-80
2024/03/22 00:30:04;;;;;;;7.97;7.18;;;;;;;7.84;74.87;101056.09;2512901;28;20022;-78
2024/03/22 00:31:18;;;;;;;9.55;7.38;;;;;;;7.83;74.58;101058.69;2517224;28;20037;-79
2024/03/22 00:32:31;;;;;;;8.50;7.70;;;;;;;7.77;74.61;101054.31;2523643;28;20514;-78
2024/03/22 00:33:44;;;;;;;8.70;7.90;;;;;;;7.75;74.84;101050.81;2522252;28;20040;-79
2024/03/22 00:34:58;;;;;;;7.95;7.15;;;;;;;7.72;74.74;101053.38;2507568;28;20026;-78
2024/03/22 00:36:11;;;;;;;8.27;7.47;;;;;;;7.70;74.87;101054.22;2517660;28;20018;-79
2024/03/22 00:37:24;;;;;;;8.35;7.22;;;;;;;7.69;74.84;101050.75;2517883;28;20034;-79
2024/03/22 00:38:37;;;;;;;8.32;7.55;;;;;;;7.70;75.16;101047.31;2523439;28;20026;-78
2024/03/22 00:39:51;;;;;;;8.13;7.20;;;;;;;7.71;75.08;101048.16;2515490;28;20093;-79
2024/03/22 00:41:04;;;;;;;6.82;6.13;;;;;;;7.71;75.23;101048.16;2507124;28;20030;-78
2024/03/22 00:42:17;;;;;;;8.88;7.95;;;;;;;7.73;75.55;101046.47;2497740;28;20029;-78
2024/03/22 00:43:30;;;;;;;7.82;6.95;;;;;;;7.73;75.36;101051.66;2507667;28;20585;-78
2024/03/22 00:44:43;;;;;;;9.30;7.20;;;;;;;7.73;75.28;101047.31;2522571;28;20030;-78
2024/03/22 00:45:58;;;;;;;11.77;7.50;;;;;;;7.71;75.40;101041.25;2502506;28;20504;-78
2024/03/22 00:47:11;;;;;;;16.73;7.55;;;;;;;7.67;75.28;101042.09;2490175;28;20029;-81
2024/03/22 00:48:24;;;;;;;10.88;8.18;;;;;;;7.65;75.29;101036.00;2499845;28;20030;-78
2024/03/22 00:49:37;;;;;;;9.38;7.28;;;;;;;7.64;75.33;101039.44;2514874;28;20030;-78
2024/03/22 00:50:51;;;;;;;7.65;6.95;;;;;;;7.63;75.27;101038.56;2522376;28;20030;-78
2024/03/22 00:52:04;;;;;;;20.88;9.40;;;;;;;7.64;75.47;101035.13;2522477;28;20084;-78
2024/03/22 00:53:17;;;;;;;9.52;7.10;;;;;;;7.66;75.57;101032.53;2516589;28;20109;-78
2024/03/22 00:54:30;;;;;;;10.10;7.10;;;;;;;7.67;75.47;101031.69;2512852;28;20053;-78
2024/03/22 00:55:44;;;;;;;15.50;7.30;;;;;;;7.65;75.23;101025.59;2513426;28;20065;-78
2024/03/22 00:56:57;;;;;;;9.57;7.63;;;;;;;7.62;75.40;101029.03;2505734;28;20030;-78
2024/03/22 00:58:10;;;;;;;16.90;7.88;;;;;;;7.59;75.42;101028.13;2497084;28;20085;-78
2024/03/22 00:59:23;;;;;;;8.85;7.95;;;;;;;7.58;75.28;101023.81;2506448;28;20054;-79
2024/03/22 01:00:37;;;;;;;12.15;7.57;;;;;;;7.59;75.64;101028.13;2507650;28;20057;-79
2024/03/22 01:01:51;;;;;;;11.45;7.97;;;;;;;7.58;75.65;101022.06;2522787;28;20021;-78
2024/03/22 01:03:04;;;;;;;8.63;7.68;;;;;;;7.58;75.51;101019.47;2523281;28;20036;-79
2024/03/22 01:04:17;;;;;;;12.13;7.45;;;;;;;7.59;75.86;101029.03;2522836;28;20049;-78
2024/03/22 01:05:30;;;;;;;7.78;6.43;;;;;;;7.59;76.02;101025.53;2523639;28;20084;-80
2024/03/22 01:06:43;;;;;;;8.57;6.75;;;;;;;7.57;75.85;101028.13;2522321;28;20032;-78
2024/03/22 01:07:57;;;;;;;7.68;6.88;;;;;;;7.56;75.91;101018.63;2510940;28;20043;-78
2024/03/22 01:09:10;;;;;;;11.68;6.72;;;;;;;7.53;75.76;101026.34;2506519;28;20058;-79
2024/03/22 01:10:23;;;;;;;8.45;6.32;;;;;;;7.51;75.62;101011.59;2517750;28;20021;-79
2024/03/22 01:11:36;;;;;;;9.23;7.75;;;;;;;7.48;75.76;101019.38;2507865;28;20035;-79
2024/03/22 01:12:50;;;;;;;12.07;6.80;;;;;;;7.45;76.03;101014.16;2512631;28;20058;-78
2024/03/22 01:14:03;;;;;;;14.63;7.15;;;;;;;7.44;76.05;101021.06;2526353;28;20033;-79
2024/03/22 01:15:16;;;;;;;10.18;7.43;;;;;;;7.40;76.21;101014.09;2522487;28;20054;-79
2024/03/22 01:16:30;;;;;;;9.80;7.88;;;;;;;7.37;76.00;101008.88;2512058;28;20641;-78
2024/03/22 01:17:43;;;;;;;10.52;7.60;;;;;;;7.33;76.05;101015.78;2515576;28;20107;-78
2024/03/22 01:18:56;;;;;;;12.70;6.82;;;;;;;7.30;75.99;101015.72;2522358;28;20030;-78
2024/03/22 01:20:10;;;;;;;9.45;7.18;;;;;;;7.27;76.33;101015.69;2511553;28;20034;-78
2024/03/22 01:21:25;;;;;;;8.35;7.43;;;;;;;7.27;76.35;101020.88;2517581;28;20113;-78
2024/03/22 01:22:38;;;;;;;8.50;7.05;;;;;;;7.26;76.37;101013.97;2523873;28;20475;-78
2024/03/22 01:23:54;;;;;;;9.20;7.90;;;;;;;7.25;76.44;101017.41;2523740;28;20050;-79
2024/03/22 01:25:09;;;;;;;10.20;7.43;;;;;;;7.21;76.33;101018.25;2510404;28;20034;-79
2024/03/22 01:26:22;;;;;;;10.85;9.05;;;;;;;7.20;76.49;101024.25;2511230;28;20026;-77
2024/03/22 01:27:36;;;;;;;7.88;7.00;;;;;;;7.15;76.51;101024.22;2506768;28;20031;-78
2024/03/22 01:28:49;;;;;;;9.20;7.75;;;;;;;7.09;76.62;101016.34;2509210;28;20026;-78
2024/03/22 01:30:03;;;;;;;8.73;7.82;;;;;;;7.05;76.36;101013.72;2508123;28;20085;-78
2024/03/22 01:31:16;;;;;;;10.30;7.43;;;;;;;7.02;76.08;101008.47;2508613;28;20041;-79
2024/03/22 01:32:29;;;;;;;13.15;7.70;;;;;;;6.99;76.13;100999.81;2517995;28;20418;-79
2024/03/22 01:33:42;;;;;;;8.98;8.20;;;;;;;6.99;76.45;100998.94;2521735;28;20061;-78
2024/03/22 01:34:55;;;;;;;8.38;6.85;;;;;;;6.98;76.59;101012.78;2513996;28;20525;-79
2024/03/22 01:36:09;;;;;;;8.80;7.95;;;;;;;6.98;77.05;101000.66;2506911;28;20038;-79
2024/03/22 01:37:22;;;;;;;9.98;7.95;;;;;;;6.97;76.81;100998.94;2515116;28;20062;-78
2024/03/22 01:38:35;;;;;;;8.98;7.97;;;;;;;6.94;76.94;100998.00;2517861;28;20022;-78
2024/03/22 01:39:48;;;;;;;11.57;7.53;;;;;;;6.88;76.71;101000.53;2524285;28;20077;-79
2024/03/22 01:41:02;;;;;;;9.70;7.85;;;;;;;6.83;77.09;100997.03;2514651;28;20157;-79
2024/03/22 01:42:15;;;;;;;11.82;9.13;;;;;;;6.78;76.68;100996.97;2509205;28;20070;-77
2024/03/22 01:43:28;;;;;;;9.07;7.53;;;;;;;6.76;76.80;100991.78;2514324;28;20026;-78
2024/03/22 01:44:41;;;;;;;9.30;7.65;;;;;;;6.78;77.09;100994.38;2514719;28;20030;-78
2024/03/22 01:45:54;;;;;;;9.93;8.38;;;;;;;6.79;77.27;100988.34;2514182;28;20034;-78
2024/03/22 01:47:08;;;;;;;12.48;8.02;;;;;;;6.81;77.04;100994.41;2507399;28;20068;-78
2024/03/22 01:48:21;;;;;;;11.43;7.15;;;;;;;6.82;77.21;100990.97;2513875;28;20054;-81
2024/03/22 01:49:35;;;;;;;10.00;7.05;;;;;;;6.83;77.17;100992.69;2514953;28;20647;-78
2024/03/22 01:50:48;;;;;;;9.20;7.07;;;;;;;6.82;77.01;100988.38;2517610;28;20468;-79
2024/03/22 01:52:03;;;;;;;14.30;8.07;;;;;;;6.81;77.05;100997.00;2523134;28;20030;-78
2024/03/22 01:53:17;;;;;;;10.38;8.15;;;;;;;6.78;77.03;100989.19;2524059;28;20014;-78
2024/03/22 01:54:31;;;;;;;10.90;8.23;;;;;;;6.78;77.11;100994.38;2523007;28;20033;-79
2024/03/22 01:55:44;;;;;;;8.90;8.00;;;;;;;6.74;77.19;100988.28;2517122;28;20038;-78
2024/03/22 01:56:57;;;;;;;12.05;7.88;;;;;;;6.73;77.08;100983.94;2516975;28;20057;-78
2024/03/22 01:58:12;;;;;;;8.70;7.18;;;;;;;6.74;77.12;100988.28;2501037;28;20058;-79
2024/03/22 01:59:25;;;;;;;11.43;8.32;;;;;;;6.75;77.37;100989.16;2509574;28;20125;-79
2024/03/22 02:00:39;;;;;;;8.13;7.32;;;;;;;6.75;77.42;100986.56;2510527;28;20057;-79
2024/03/22 02:01:52;;;;;;;8.18;7.47;;;;;;;6.76;77.46;100977.91;2509564;28;20113;-79
2024/03/22 02:03:05;;;;;;;9.27;7.60;;;;;;;6.76;77.50;100980.50;2516100;28;20019;-79
2024/03/22 02:04:19;;;;;;;11.05;9.93;;;;;;;6.76;77.43;100983.09;2516434;28;20026;-79
2024/03/22 02:05:32;;;;;;;8.48;7.68;;;;;;;6.75;77.50;100978.78;2509436;28;20034;-78
2024/03/22 02:06:46;;;;;;;11.18;8.57;;;;;;;6.72;77.42;100976.16;2514265;28;20061;-78
2024/03/22 02:07:59;;;;;;;11.55;9.55;;;;;;;6.70;77.50;100978.72;2515003;28;20092;-79
2024/03/22 02:09:14;;;;;;;11.30;10.13;;;;;;;6.67;77.49;100977.81;2519018;28;20034;-79
2024/03/22 02:10:28;;;;;;;9.55;8.60;;;;;;;6.63;77.58;100979.47;2515677;28;20069;-78
2024/03/22 02:11:42;;;;;;;9.80;8.65;;;;;;;6.66;77.75;100983.84;2508139;28;20046;-78
2024/03/22 02:12:55;;;;;;;11.73;9.85;;;;;;;6.66;77.74;100973.47;2515858;28;20022;-79
2024/03/22 02:14:08;;;;;;;14.65;9.10;;;;;;;6.65;77.71;100977.78;2505720;28;20423;-79
2024/03/22 02:15:22;;;;;;;10.10;9.05;;;;;;;6.63;77.84;100976.03;2502466;28;20050;-78
2024/03/22 02:16:35;;;;;;;11.20;10.07;;;;;;;6.64;77.78;100976.06;2509116;28;20030;-78
2024/03/22 02:17:48;;;;;;;12.73;8.57;;;;;;;6.67;77.90;100975.22;2515609;28;20030;-79
2024/03/22 02:19:01;;;;;;;9.55;8.50;;;;;;;6.68;77.90;100977.81;2515323;28;20065;-78
2024/03/22 02:20:15;;;;;;;10.65;9.55;;;;;;;6.71;77.85;100982.16;2508363;28;20026;-79
2024/03/22 02:21:28;;;;;;;8.63;7.82;;;;;;;6.72;77.85;100974.41;2499674;28;20026;-79
2024/03/22 02:22:41;;;;;;;10.80;8.45;;;;;;;6.75;78.09;100977.03;2512528;28;20061;-78
2024/03/22 02:23:55;;;;;;;10.43;9.18;;;;;;;6.77;78.04;100977.06;2515294;28;20108;-79
2024/03/22 02:25:08;;;;;;;12.10;9.10;;;;;;;6.78;77.96;100979.66;2499281;28;20448;-79
2024/03/22 02:26:21;;;;;;;10.23;8.95;;;;;;;6.82;78.24;100982.31;2506316;28;20521;-79
2024/03/22 02:27:35;;;;;;;11.85;10.65;;;;;;;6.83;77.97;100973.69;2508964;28;20035;-79
2024/03/22 02:28:48;;;;;;;10.93;9.20;;;;;;;6.84;77.97;100983.19;2509126;28;20105;-79
2024/03/22 02:30:02;;;;;;;16.33;10.10;;;;;;;6.86;77.87;100971.97;2510761;28;20045;-79
2024/03/22 02:31:15;;;;;;;12.00;9.35;;;;;;;6.89;78.06;100976.34;2509920;28;20117;-79
2024/03/22 02:32:28;;;;;;;10.77;8.88;;;;;;;6.92;77.75;100971.19;2516198;28;20034;-79
2024/03/22 02:33:41;;;;;;;12.63;8.70;;;;;;;6.92;77.85;100977.25;2515751;28;20022;-80
2024/03/22 02:34:55;;;;;;;11.27;9.07;;;;;;;6.94;77.77;100967.78;2518266;28;20030;-78
2024/03/22 02:36:08;;;;;;;10.32;7.93;;;;;;;6.96;77.78;100965.19;2513889;28;20046;-79
2024/03/22 02:37:22;;;;;;;9.45;8.43;;;;;;;6.98;78.18;100966.94;2518428;28;20026;-79
2024/03/22 02:38:35;;;;;;;13.52;9.25;;;;;;;7.01;77.88;100960.91;2504969;28;20027;-79
2024/03/22 02:39:48;;;;;;;11.38;10.13;;;;;;;7.04;77.84;100963.53;2511825;28;20054;-79
2024/03/22 02:41:01;;;;;;;9.57;8.65;;;;;;;7.05;77.90;100962.69;2515072;28;20408;-79
2024/03/22 02:42:14;;;;;;;10.23;9.18;;;;;;;7.07;77.92;100962.69;2519023;28;20388;-79
2024/03/22 02:43:28;;;;;;;11.85;10.18;;;;;;;7.09;77.80;100961.84;2514232;28;20041;-79
2024/03/22 02:44:42;;;;;;;10.30;7.95;;;;;;;7.10;77.79;100955.84;2508988;28;20530;-79
2024/03/22 02:45:56;;;;;;;10.90;9.65;;;;;;;7.08;77.68;100954.06;2508415;28;20023;-79
2024/03/22 02:47:10;;;;;;;10.52;8.35;;;;;;;7.08;77.76;100954.06;2517830;28;20096;-79
2024/03/22 02:48:23;;;;;;;14.13;8.82;;;;;;;7.09;77.93;100951.47;2514534;28;20029;-80
2024/03/22 02:49:38;;;;;;;12.32;8.90;;;;;;;7.15;77.76;100953.25;2515299;28;20034;-79
2024/03/22 02:50:55;;;;;;;10.82;9.35;;;;;;;7.18;77.76;100958.50;2508871;28;20026;-79
2024/03/22 02:52:08;;;;;;;16.65;8.40;;;;;;;7.19;77.60;100949.84;2499043;28;20444;-79
2024/03/22 02:53:21;;;;;;;12.00;8.65;;;;;;;7.22;77.93;100949.88;2508934;28;20030;-79
2024/03/22 02:54:34;;;;;;;10.40;9.27;;;;;;;7.25;77.77;100955.09;2516226;28;20093;-80
2024/03/22 02:55:48;;;;;;;9.93;8.45;;;;;;;7.26;77.87;100959.44;2514752;28;20486;-78
2024/03/22 02:57:01;;;;;;;13.55;8.18;;;;;;;7.29;77.74;100951.69;2519475;28;20506;-79
2024/03/22 02:58:17;;;;;;;9.43;7.70;;;;;;;7.33;77.58;100947.38;2515183;28;20049;-80
2024/03/22 02:59:30;;;;;;;11.68;9.05;;;;;;;7.34;77.54;100949.13;2507825;28;20050;-79
2024/03/22 03:00:47;;;;;;;11.45;9.45;;;;;;;7.33;77.61;100956.06;2517586;28;20034;-79
2024/03/22 03:02:00;;;;;;;9.18;8.18;;;;;;;7.34;77.40;100960.38;2516153;28;20030;-80
2024/03/22 03:03:13;;;;;;;10.52;8.65;;;;;;;7.33;77.50;100956.06;2519687;28;20081;-80
2024/03/22 03:04:26;;;;;;;10.38;9.20;;;;;;;7.32;77.59;100956.03;2525639;28;20053;-79
2024/03/22 03:05:42;;;;;;;9.82;8.63;;;;;;;7.32;77.59;100951.72;2510155;28;20015;-80
2024/03/22 03:06:55;;;;;;;11.05;8.40;;;;;;;7.32;77.49;100951.72;2518705;28;20021;-80
2024/03/22 03:08:09;;;;;;;9.35;8.18;;;;;;;7.32;76.98;100956.91;2525591;28;20037;-80
2024/03/22 03:09:22;;;;;;;8.93;8.02;;;;;;;7.31;77.24;100951.72;2531854;28;20125;-79
2024/03/22 03:10:36;;;;;;;8.88;8.07;;;;;;;7.29;77.29;100946.50;2527100;28;20041;-80
2024/03/22 03:11:49;;;;;;;9.30;8.40;;;;;;;7.30;77.31;100953.41;2517557;28;20040;-80
2024/03/22 03:13:02;;;;;;;8.82;8.00;;;;;;;7.31;77.41;100947.38;2518602;28;20094;-79
2024/03/22 03:14:16;;;;;;;10.05;9.05;;;;;;;7.34;77.29;100951.72;2524800;28;20529;-79
2024/03/22 03:15:29;;;;;;;8.75;7.90;;;;;;;7.35;77.59;100958.66;2524042;28;20037;-79
2024/03/22 03:16:42;;;;;;;9.55;8.40;;;;;;;7.34;77.34;100951.72;2524083;28;20057;-78
2024/03/22 03:17:55;;;;;;;8.45;7.70;;;;;;;7.31;77.22;100954.31;2525491;28;20505;-79
2024/03/22 03:19:09;;;;;;;12.85;8.27;;;;;;;7.27;77.37;100953.38;2524426;28;20466;-79
2024/03/22 03:20:22;;;;;;;9.38;7.68;;;;;;;7.25;77.10;100959.41;2525328;28;20033;-80
2024/03/22 03:21:35;;;;;;;9.70;8.73;;;;;;;7.23;77.23;100956.81;2532275;28;20055;-78
2024/03/22 03:22:48;;;;;;;10.07;7.55;;;;;;;7.20;77.19;100946.38;2524453;28;20033;-78
2024/03/22 03:24:02;;;;;;;10.73;8.07;;;;;;;7.20;77.18;100951.56;2508420;28;20034;-79
2024/03/22 03:25:15;;;;;;;11.85;8.35;;;;;;;7.18;77.43;100954.19;2517869;28;20068;-79
2024/03/22 03:26:28;;;;;;;9.65;8.27;;;;;;;7.18;77.29;100951.59;2514118;28;20034;-78
2024/03/22 03:27:42;;;;;;;9.88;7.45;;;;;;;7.18;77.29;100951.59;2510456;28;20077;-79
2024/03/22 03:28:55;;;;;;;9.00;8.10;;;;;;;7.19;77.49;100948.13;2518105;28;20034;-79
2024/03/22 03:30:09;;;;;;;8.93;8.02;;;;;;;7.20;77.52;100951.56;2524150;28;20463;-79
2024/03/22 03:31:22;;;;;;;9.82;7.82;;;;;;;7.20;77.97;100948.97;2530481;28;20037;-79
2024/03/22 03:32:35;;;;;;;8.50;7.57;;;;;;;7.19;77.70;100945.53;2527060;28;20030;-79
2024/03/22 03:33:49;;;;;;;12.90;9.75;;;;;;;7.19;77.50;100944.66;2524342;28;20046;-79
2024/03/22 03:35:02;;;;;;;10.70;9.60;;;;;;;7.19;77.75;100939.47;2517180;28;20041;-79
2024/03/22 03:36:15;;;;;;;10.70;8.38;;;;;;;7.21;77.59;100948.16;2508083;28;20014;-79
2024/03/22 03:37:28;;;;;;;9.30;8.20;;;;;;;7.21;77.73;100935.16;2507797;28;20065;-79
2024/03/22 03:38:42;;;;;;;14.32;10.55;;;;;;;7.20;77.85;100931.72;2515325;28;20030;-80
2024/03/22 03:39:55;;;;;;;12.65;8.45;;;;;;;7.22;77.87;100934.31;2508967;28;20045;-79
2024/03/22 03:41:08;;;;;;;13.25;8.82;;;;;;;7.23;77.62;100933.47;2524072;28;20022;-79
2024/03/22 03:42:22;;;;;;;13.30;8.98;;;;;;;7.24;78.03;100937.78;2524465;28;20542;-79
2024/03/22 03:43:35;;;;;;;14.88;7.88;;;;;;;7.26;78.08;100933.50;2523137;28;20460;-79
2024/03/22 03:44:48;;;;;;;10.32;9.40;;;;;;;7.28;77.77;100933.47;2524610;28;20033;-80
2024/03/22 03:46:02;;;;;;;9.82;8.80;;;;;;;7.28;77.77;100929.19;2527106;28;20028;-80
2024/03/22 03:47:15;;;;;;;14.82;10.02;;;;;;;7.28;77.91;100931.78;2530816;28;20415;-81
2024/03/22 03:48:28;;;;;;;9.90;7.65;;;;;;;7.29;77.89;100924.84;2524550;28;20030;-80
2024/03/22 03:49:41;;;;;;;14.70;8.35;;;;;;;7.30;77.74;100929.19;2514762;28;20137;-79
2024/03/22 03:50:59;;;;;;;9.07;7.55;;;;;;;7.31;77.88;100930.94;2518052;28;20060;-79
2024/03/22 03:52:12;;;;;;;9.65;8.10;;;;;;;7.30;77.63;100924.84;2533085;28;20095;-79
2024/03/22 03:53:25;;;;;;;8.68;7.78;;;;;;;7.31;77.72;100928.34;2516867;28;20435;-79
2024/03/22 03:54:38;;;;;;;8.90;7.50;;;;;;;7.29;77.58;100920.53;2520745;28;20112;-79
2024/03/22 03:55:52;;;;;;;8.65;7.63;;;;;;;7.30;77.61;100931.78;2524871;28;20068;-79
2024/03/22 03:57:05;;;;;;;8.95;8.05;;;;;;;7.28;77.73;100924.00;2527654;28;20418;-80
2024/03/22 03:58:18;;;;;;;10.35;8.32;;;;;;;7.29;77.58;100928.31;2510237;28;20018;-79
2024/03/22 03:59:32;;;;;;;8.30;7.50;;;;;;;7.30;77.91;100926.59;2507654;28;20034;-79
2024/03/22 04:00:45;;;;;;;10.73;7.00;;;;;;;7.32;77.75;100922.28;2520737;28;20057;-79
2024/03/22 04:01:58;;;;;;;11.63;8.60;;;;;;;7.31;77.52;100918.81;2523364;28;20042;-80
2024/03/22 04:03:11;;;;;;;10.50;7.03;;;;;;;7.33;77.69;100924.91;2523891;28;20030;-79
2024/03/22 04:04:25;;;;;;;10.25;8.32;;;;;;;7.34;77.68;100926.63;2507232;28;20018;-79
2024/03/22 04:05:38;;;;;;;7.80;7.05;;;;;;;7.34;77.36;100924.03;2514155;28;20072;-80
2024/03/22 04:06:51;;;;;;;8.38;7.20;;;;;;;7.34;77.53;100921.44;2522780;28;20037;-79
2024/03/22 04:08:05;;;;;;;11.43;9.68;;;;;;;7.35;77.36;100924.91;2525973;28;20029;-79
2024/03/22 04:09:18;;;;;;;10.70;8.32;;;;;;;7.35;77.52;100922.31;2512725;28;20541;-80
2024/03/22 04:10:31;;;;;;;10.13;7.63;;;;;;;7.35;77.34;100919.72;2517547;28;20025;-79
2024/03/22 04:11:44;;;;;;;7.72;6.32;;;;;;;7.35;77.54;100925.75;2531133;28;20044;-79
2024/03/22 04:12:58;;;;;;;12.20;7.68;;;;;;;7.35;77.45;100922.31;2514899;28;20035;-80
2024/03/22 04:14:11;;;;;;;8.20;7.32;;;;;;;7.36;77.51;100931.84;2506880;28;20029;-79
2024/03/22 04:15:24;;;;;;;9.68;7.57;;;;;;;7.35;77.41;100923.16;2522433;28;20116;-80
2024/03/22 04:16:38;;;;;;;12.00;7.38;;;;;;;7.34;77.60;100926.63;2526943;28;20084;-79
2024/03/22 04:17:51;;;;;;;9.98;8.95;;;;;;;7.35;77.73;100924.91;2523199;28;20044;-80
2024/03/22 04:19:04;;;;;;;13.52;8.38;;;;;;;7.33;77.48;100924.91;2523507;28;20030;-79
2024/03/22 04:20:17;;;;;;;10.48;7.65;;;;;;;7.31;77.51;100925.75;2523073;28;20077;-79
2024/03/22 04:21:31;;;;;;;11.27;7.22;;;;;;;7.31;77.73;100923.16;2523687;28;20081;-79
2024/03/22 04:22:44;;;;;;;10.35;8.05;;;;;;;7.30;77.39;100927.44;2517127;28;20053;-79
2024/03/22 04:23:57;;;;;;;8.93;7.15;;;;;;;7.31;77.81;100920.56;2506786;28;20109;-79
2024/03/22 04:25:11;;;;;;;11.35;10.23;;;;;;;7.31;77.39;100924.00;2506954;28;20026;-79
2024/03/22 04:26:24;;;;;;;9.48;8.60;;;;;;;7.32;77.71;100927.47;2512548;28;20026;-79
2024/03/22 04:27:37;;;;;;;8.85;8.00;;;;;;;7.31;77.74;100926.63;2513188;28;20427;-79
2024/03/22 04:28:50;;;;;;;11.88;7.55;;;;;;;7.30;77.73;100931.78;2523237;28;20046;-80
2024/03/22 04:30:04;;;;;;;9.60;7.90;;;;;;;7.28;77.70;100923.09;2523518;28;20069;-79
2024/03/22 04:31:17;;;;;;;8.52;7.10;;;;;;;7.28;77.82;100926.59;2512268;28;20042;-79
2024/03/22 04:32:30;;;;;;;10.93;7.82;;;;;;;7.30;77.59;100927.44;2510672;28;20124;-79
2024/03/22 04:33:44;;;;;;;10.88;7.53;;;;;;;7.29;77.65;100920.53;2518179;28;20033;-79
2024/03/22 04:34:57;;;;;;;9.18;7.03;;;;;;;7.31;77.73;100925.75;2524881;28;20367;-79
2024/03/22 04:36:10;;;;;;;11.68;7.07;;;;;;;7.29;77.50;100925.72;2530020;28;20053;-79
2024/03/22 04:37:24;;;;;;;11.63;7.63;;;;;;;7.26;78.13;100919.66;2524369;28;20073;-79
2024/03/22 04:38:37;;;;;;;8.77;7.68;;;;;;;7.22;77.26;100921.31;2523356;28;20178;-79
2024/03/22 04:39:50;;;;;;;9.65;7.93;;;;;;;7.19;77.29;100919.56;2510759;28;20426;-79
2024/03/22 04:41:03;;;;;;;13.63;10.77;;;;;;;7.16;77.48;100923.88;2504345;28;20044;-80
2024/03/22 04:42:17;;;;;;;11.70;7.03;;;;;;;7.13;77.45;100919.53;2507608;28;20033;-79
2024/03/22 04:43:30;;;;;;;8.75;7.88;;;;;;;7.10;77.45;100918.59;2502127;28;20106;-80
2024/03/22 04:44:43;;;;;;;11.65;8.27;;;;;;;7.07;77.60;100919.44;2505451;28;20038;-80
2024/03/22 04:45:57;;;;;;;8.38;7.32;;;;;;;7.03;77.55;100920.28;2508830;28;20030;-80
2024/03/22 04:47:10;;;;;;;7.93;7.13;;;;;;;7.01;77.67;100918.53;2517586;28;20057;-79
2024/03/22 04:48:23;;;;;;;8.80;7.40;;;;;;;6.97;77.97;100921.09;2519255;28;20026;-80
2024/03/22 04:49:37;;;;;;;11.48;8.82;;;;;;;6.96;77.96;100921.94;2532463;28;20040;-79
2024/03/22 04:50:51;;;;;;;8.77;7.88;;;;;;;6.97;78.12;100918.50;2515928;28;20058;-79
2024/03/22 04:52:05;;;;;;;8.63;7.80;;;;;;;6.99;78.18;100921.97;2511022;28;20054;-80
2024/03/22 04:53:21;;;;;;;9.23;8.32;;;;;;;7.00;78.16;100922.84;2511845;28;20022;-81
2024/03/22 04:54:34;;;;;;;8.38;7.57;;;;;;;6.98;78.01;100914.19;2513260;28;20057;-80
2024/03/22 04:55:48;;;;;;;8.25;7.45;;;;;;;7.01;78.31;100918.53;2513894;28;20038;-81
2024/03/22 04:57:02;;;;;;;9.15;7.47;;;;;;;7.03;78.49;100914.22;2512617;28;20026;-81
2024/03/22 04:58:17;;;;;;;8.40;7.60;;;;;;;7.06;78.44;100914.25;2506182;28;20026;-81
2024/03/22 04:59:30;;;;;;;10.70;8.82;;;;;;;7.09;78.50;100912.53;2507155;28;20048;-81
2024/03/22 05:00:44;;;;;;;10.10;7.22;;;;;;;7.15;78.50;100909.13;2508016;28;20030;-80
2024/03/22 05:01:57;;;;;;;8.52;7.65;;;;;;;7.19;78.36;100914.38;2504263;28;20102;-80
2024/03/22 05:03:11;;;;;;;7.90;7.13;;;;;;;7.23;78.35;100912.69;2509295;28;20500;-79
2024/03/22 05:04:24;;;;;;;8.93;8.02;;;;;;;7.23;78.38;100915.28;2511892;28;20050;-80
2024/03/22 05:05:38;;;;;;;8.77;7.97;;;;;;;7.24;78.38;100906.63;2514382;28;20610;-79
2024/03/22 05:06:51;;;;;;;10.38;6.68;;;;;;;7.25;78.11;100908.38;2516587;28;20515;-79
2024/03/22 05:08:06;;;;;;;9.18;8.25;;;;;;;7.25;78.49;100910.09;2506015;28;20534;-80
2024/03/22 05:09:19;;;;;;;8.73;7.40;;;;;;;7.25;78.18;100913.56;2499637;28;20027;-80
2024/03/22 05:10:33;;;;;;;9.23;7.53;;;;;;;7.27;78.14;100908.38;2502874;28;20046;-81
2024/03/22 05:11:49;;;;;;;19.20;8.10;;;;;;;7.27;78.14;100910.97;2515319;28;20091;-82
2024/03/22 05:13:03;;;;;;;7.28;6.60;;;;;;;7.27;78.10;100906.66;2516978;28;20032;-81
2024/03/22 05:14:19;;;;;;;11.52;7.10;;;;;;;7.28;77.97;100908.41;2513963;28;20034;-81
2024/03/22 05:15:32;;;;;;;7.50;6.75;;;;;;;7.25;78.00;100905.78;2514142;28;20041;-81
2024/03/22 05:16:45;;;;;;;9.35;8.40;;;;;;;7.23;77.80;100907.50;2507721;28;20089;-81
2024/03/22 05:17:59;;;;;;;10.18;7.53;;;;;;;7.19;77.85;100909.19;2511448;28;20034;-81
2024/03/22 05:19:12;;;;;;;17.33;7.90;;;;;;;7.14;77.74;100900.47;2517053;28;20060;-80
2024/03/22 05:20:26;;;;;;;7.90;6.10;;;;;;;7.11;77.67;100902.19;2517187;28;20144;-80
2024/03/22 05:21:39;;;;;;;9.77;8.52;;;;;;;7.08;77.99;100900.44;2523686;28;20030;-80
2024/03/22 05:22:52;;;;;;;7.82;7.05;;;;;;;7.08;78.16;100905.63;2524585;28;20048;-81
2024/03/22 05:24:05;;;;;;;10.02;8.93;;;;;;;7.08;77.77;100903.03;2523761;28;20034;-80
2024/03/22 05:25:19;;;;;;;17.30;7.88;;;;;;;7.07;77.96;100895.22;2523939;28;20506;-81
2024/03/22 05:26:36;;;;;;;7.47;6.68;;;;;;;7.05;77.88;100891.72;2517463;28;20105;-81
2024/03/22 05:27:49;;;;;;;10.40;7.30;;;;;;;7.05;78.00;100886.53;2517346;28;20041;-81
2024/03/22 05:29:02;;;;;;;10.88;7.35;;;;;;;7.04;78.01;100893.47;2507595;28;20026;-80
2024/03/22 05:30:16;;;;;;;8.73;8.02;;;;;;;7.05;78.15;100897.81;2511371;28;20017;-82
2024/03/22 05:31:29;;;;;;;10.23;7.10;;;;;;;7.05;78.13;100894.31;2516926;28;20030;-82
2024/03/22 05:32:42;;;;;;;8.15;7.05;;;;;;;7.03;78.17;100896.94;2518048;28;20026;-82
2024/03/22 05:33:56;;;;;;;10.68;6.85;;;;;;;7.02;78.16;100886.53;2515099;28;20018;-82
2024/03/22 05:35:09;;;;;;;9.20;8.30;;;;;;;7.02;78.35;100889.13;2523309;28;20480;-82
2024/03/22 05:36:22;;;;;;;9.02;7.68;;;;;;;7.07;78.39;100882.25;2517653;28;20052;-83
2024/03/22 05:37:35;;;;;;;12.57;7.38;;;;;;;7.13;78.24;100887.50;2517980;28;20064;-83
2024/03/22 05:38:49;;;;;;;11.57;9.07;;;;;;;7.16;78.47;100879.75;2517260;28;20032;-82
2024/03/22 05:40:04;;;;;;;20.00;8.88;;;;;;;7.16;78.13;100885.81;2497939;28;20066;-83
2024/03/22 05:41:18;;;;;;;9.90;7.82;;;;;;;7.19;78.39;100882.38;2502080;28;20069;-83
2024/03/22 05:42:31;;;;;;;9.68;7.68;;;;;;;7.22;78.03;100880.66;2498096;28;20022;-82
2024/03/22 05:43:44;;;;;;;8.95;8.15;;;;;;;7.29;78.31;100881.59;2503833;28;20698;-82